sensor_id;sensor_type;location;lat;lon;timestamp;temperature;humidity
65396;HTU21D;52004;45.136;39.010;2022-09-23T00:01:40;17.25;64.78
65396;HTU21D;52004;45.136;39.010;2022-09-23T00:04:06;17.28;64.79
65396;HTU21D;52004;45.136;39.010;2022-09-23T00:06:31;17.28;64.82
65396;HTU21D;52004;45.136;39.010;2022-09-23T00:08:57;17.26;64.87
65396;HTU21D;52004;45.136;39.010;2022-09-23T00:11:24;17.28;64.88
65396;HTU21D;52004;45.136;39.010;2022-09-23T00:13:52;17.28;64.89
65396;HTU21D;52004;45.136;39.010;2022-09-23T00:16:20;17.29;64.93
65396;HTU21D;52004;45.136;39.010;2022-09-23T00:18:46;17.29;64.96
65396;HTU21D;52004;45.136;39.010;2022-09-23T00:21:14;17.30;64.97
65396;HTU21D;52004;45.136;39.010;2022-09-23T00:23:41;17.30;64.98
65396;HTU21D;52004;45.136;39.010;2022-09-23T00:26:07;17.29;64.99
65396;HTU21D;52004;45.136;39.010;2022-09-23T00:28:34;17.26;65.06
65396;HTU21D;52004;45.136;39.010;2022-09-23T00:31:03;17.28;65.09
65396;HTU21D;52004;45.136;39.010;2022-09-23T00:33:29;17.28;65.10
65396;HTU21D;52004;45.136;39.010;2022-09-23T00:36:14;17.28;65.13
65396;HTU21D;52004;45.136;39.010;2022-09-23T00:38:40;17.29;65.16
65396;HTU21D;52004;45.136;39.010;2022-09-23T00:41:06;17.29;65.17
65396;HTU21D;52004;45.136;39.010;2022-09-23T00:43:36;17.30;65.21
65396;HTU21D;52004;45.136;39.010;2022-09-23T00:46:03;17.31;65.21
65396;HTU21D;52004;45.136;39.010;2022-09-23T00:48:29;17.30;65.23
65396;HTU21D;52004;45.136;39.010;2022-09-23T00:50:55;17.30;65.24
65396;HTU21D;52004;45.136;39.010;2022-09-23T00:53:21;17.30;65.26
65396;HTU21D;52004;45.136;39.010;2022-09-23T00:55:49;17.31;65.29
65396;HTU21D;52004;45.136;39.010;2022-09-23T00:58:18;17.30;65.30
65396;HTU21D;52004;45.136;39.010;2022-09-23T01:00:46;17.32;65.33
65396;HTU21D;52004;45.136;39.010;2022-09-23T01:03:12;17.31;65.36
65396;HTU21D;52004;45.136;39.010;2022-09-23T01:05:38;17.29;65.38
65396;HTU21D;52004;45.136;39.010;2022-09-23T01:08:04;17.28;65.42
65396;HTU21D;52004;45.136;39.010;2022-09-23T01:13:31;17.29;65.47
65396;HTU21D;52004;45.136;39.010;2022-09-23T01:16:07;17.28;65.53
65396;HTU21D;52004;45.136;39.010;2022-09-23T01:18:40;17.30;65.53
65396;HTU21D;52004;45.136;39.010;2022-09-23T01:34:23;17.29;65.59
65396;HTU21D;52004;45.136;39.010;2022-09-23T01:36:54;17.28;65.56
65396;HTU21D;52004;45.136;39.010;2022-09-23T01:40:04;17.25;65.56
65396;HTU21D;52004;45.136;39.010;2022-09-23T01:44:42;17.20;65.64
65396;HTU21D;52004;45.136;39.010;2022-09-23T01:47:16;17.16;65.74
65396;HTU21D;52004;45.136;39.010;2022-09-23T01:49:45;17.13;65.78
65396;HTU21D;52004;45.136;39.010;2022-09-23T01:52:15;17.11;65.85
65396;HTU21D;52004;45.136;39.010;2022-09-23T01:57:48;17.07;65.89
65396;HTU21D;52004;45.136;39.010;2022-09-23T02:00:15;17.02;65.97
65396;HTU21D;52004;45.136;39.010;2022-09-23T02:02:44;16.99;66.02
65396;HTU21D;52004;45.136;39.010;2022-09-23T02:07:41;16.95;66.14
65396;HTU21D;52004;45.136;39.010;2022-09-23T02:12:34;16.93;66.17
65396;HTU21D;52004;45.136;39.010;2022-09-23T02:15:03;16.90;66.16
65396;HTU21D;52004;45.136;39.010;2022-09-23T02:17:42;16.88;66.23
65396;HTU21D;52004;45.136;39.010;2022-09-23T02:20:08;16.85;66.27
65396;HTU21D;52004;45.136;39.010;2022-09-23T02:25:12;16.84;66.33
65396;HTU21D;52004;45.136;39.010;2022-09-23T02:27:53;16.81;66.33
65396;HTU21D;52004;45.136;39.010;2022-09-23T02:30:20;16.80;66.39
65396;HTU21D;52004;45.136;39.010;2022-09-23T02:32:56;16.78;66.43
65396;HTU21D;52004;45.136;39.010;2022-09-23T02:35:28;16.77;66.44
65396;HTU21D;52004;45.136;39.010;2022-09-23T02:38:00;16.76;66.51
65396;HTU21D;52004;45.136;39.010;2022-09-23T02:40:36;16.75;66.47
65396;HTU21D;52004;45.136;39.010;2022-09-23T02:43:13;16.74;66.53
65396;HTU21D;52004;45.136;39.010;2022-09-23T02:45:44;16.73;66.56
65396;HTU21D;52004;45.136;39.010;2022-09-23T02:48:12;16.73;66.54
65396;HTU21D;52004;45.136;39.010;2022-09-23T02:50:38;16.72;66.58
65396;HTU21D;52004;45.136;39.010;2022-09-23T02:53:04;0.00;66.60
65396;HTU21D;52004;45.136;39.010;2022-09-23T02:55:31;16.69;66.62
65396;HTU21D;52004;45.136;39.010;2022-09-23T02:57:58;16.69;66.65
65396;HTU21D;52004;45.136;39.010;2022-09-23T03:00:35;16.67;66.62
65396;HTU21D;52004;45.136;39.010;2022-09-23T03:03:07;16.66;66.66
65396;HTU21D;52004;45.136;39.010;2022-09-23T03:05:36;16.64;66.68
65396;HTU21D;52004;45.136;39.010;2022-09-23T03:11:32;16.63;66.75
65396;HTU21D;52004;45.136;39.010;2022-09-23T03:24:39;16.60;66.81
65396;HTU21D;52004;45.136;39.010;2022-09-23T03:27:10;16.57;66.78
65396;HTU21D;52004;45.136;39.010;2022-09-23T03:29:45;16.57;66.84
65396;HTU21D;52004;45.136;39.010;2022-09-23T03:32:16;16.55;66.87
65396;HTU21D;52004;45.136;39.010;2022-09-23T03:34:43;16.51;66.95
65396;HTU21D;52004;45.136;39.010;2022-09-23T03:37:21;16.47;66.97
65396;HTU21D;52004;45.136;39.010;2022-09-23T03:39:53;16.48;66.98
65396;HTU21D;52004;45.136;39.010;2022-09-23T03:42:21;16.48;66.98
65396;HTU21D;52004;45.136;39.010;2022-09-23T03:44:48;16.48;66.94
65396;HTU21D;52004;45.136;39.010;2022-09-23T03:47:16;16.46;66.99
65396;HTU21D;52004;45.136;39.010;2022-09-23T03:49:43;16.45;66.99
65396;HTU21D;52004;45.136;39.010;2022-09-23T03:52:10;16.44;67.02
65396;HTU21D;52004;45.136;39.010;2022-09-23T03:54:36;16.43;67.01
65396;HTU21D;52004;45.136;39.010;2022-09-23T03:57:02;16.40;67.01
65396;HTU21D;52004;45.136;39.010;2022-09-23T03:59:28;16.37;67.01
65396;HTU21D;52004;45.136;39.010;2022-09-23T04:01:55;16.36;67.04
65396;HTU21D;52004;45.136;39.010;2022-09-23T04:04:21;16.33;67.07
65396;HTU21D;52004;45.136;39.010;2022-09-23T04:06:47;16.31;67.08
65396;HTU21D;52004;45.136;39.010;2022-09-23T04:09:13;16.28;67.10
65396;HTU21D;52004;45.136;39.010;2022-09-23T04:11:39;16.25;67.14
65396;HTU21D;52004;45.136;39.010;2022-09-23T04:14:05;16.25;67.18
65396;HTU21D;52004;45.136;39.010;2022-09-23T04:16:31;16.22;67.20
65396;HTU21D;52004;45.136;39.010;2022-09-23T04:18:57;16.21;67.20
65396;HTU21D;52004;45.136;39.010;2022-09-23T04:21:23;16.19;67.18
65396;HTU21D;52004;45.136;39.010;2022-09-23T04:23:49;16.18;67.20
65396;HTU21D;52004;45.136;39.010;2022-09-23T04:26:16;16.18;67.21
65396;HTU21D;52004;45.136;39.010;2022-09-23T04:28:43;16.17;67.23
65396;HTU21D;52004;45.136;39.010;2022-09-23T04:31:09;16.15;67.21
65396;HTU21D;52004;45.136;39.010;2022-09-23T04:33:35;16.13;67.23
65396;HTU21D;52004;45.136;39.010;2022-09-23T04:36:02;0.00;67.27
65396;HTU21D;52004;45.136;39.010;2022-09-23T04:38:28;16.10;67.27
65396;HTU21D;52004;45.136;39.010;2022-09-23T04:40:54;16.08;67.25
65396;HTU21D;52004;45.136;39.010;2022-09-23T04:43:45;0.00;67.26
65396;HTU21D;52004;45.136;39.010;2022-09-23T04:46:11;16.01;67.27
65396;HTU21D;52004;45.136;39.010;2022-09-23T04:48:38;15.99;67.30
65396;HTU21D;52004;45.136;39.010;2022-09-23T04:51:08;15.98;67.31
65396;HTU21D;52004;45.136;39.010;2022-09-23T04:53:35;15.96;67.33
65396;HTU21D;52004;45.136;39.010;2022-09-23T04:56:05;15.96;67.36
65396;HTU21D;52004;45.136;39.010;2022-09-23T04:58:31;15.95;67.37
65396;HTU21D;52004;45.136;39.010;2022-09-23T05:03:40;15.92;67.42
65396;HTU21D;52004;45.136;39.010;2022-09-23T05:06:06;0.00;67.42
65396;HTU21D;52004;45.136;39.010;2022-09-23T05:08:32;15.85;67.44
65396;HTU21D;52004;45.136;39.010;2022-09-23T05:10:59;15.78;67.49
65396;HTU21D;52004;45.136;39.010;2022-09-23T05:13:25;15.71;67.57
65396;HTU21D;52004;45.136;39.010;2022-09-23T05:16:01;15.66;67.67
65396;HTU21D;52004;45.136;39.010;2022-09-23T05:18:30;15.61;67.73
65396;HTU21D;52004;45.136;39.010;2022-09-23T05:20:57;15.58;67.78
65396;HTU21D;52004;45.136;39.010;2022-09-23T05:23:23;15.58;67.79
65396;HTU21D;52004;45.136;39.010;2022-09-23T05:26:11;15.58;67.79
65396;HTU21D;52004;45.136;39.010;2022-09-23T05:28:35;15.60;67.73
65396;HTU21D;52004;45.136;39.010;2022-09-23T05:31:07;15.59;67.71
65396;HTU21D;52004;45.136;39.010;2022-09-23T05:33:34;15.60;67.72
65396;HTU21D;52004;45.136;39.010;2022-09-23T05:36:01;15.59;67.72
65396;HTU21D;52004;45.136;39.010;2022-09-23T05:38:27;15.58;67.73
65396;HTU21D;52004;45.136;39.010;2022-09-23T05:40:56;15.56;67.77
65396;HTU21D;52004;45.136;39.010;2022-09-23T05:43:23;15.56;67.77
65396;HTU21D;52004;45.136;39.010;2022-09-23T05:45:49;15.56;67.79
65396;HTU21D;52004;45.136;39.010;2022-09-23T05:48:15;15.54;67.80
65396;HTU21D;52004;45.136;39.010;2022-09-23T05:50:50;15.52;67.84
65396;HTU21D;52004;45.136;39.010;2022-09-23T05:53:17;15.52;67.89
65396;HTU21D;52004;45.136;39.010;2022-09-23T05:55:43;15.52;67.90
65396;HTU21D;52004;45.136;39.010;2022-09-23T05:58:13;15.49;67.95
65396;HTU21D;52004;45.136;39.010;2022-09-23T06:00:39;15.49;67.99
65396;HTU21D;52004;45.136;39.010;2022-09-23T06:03:07;15.48;68.02
65396;HTU21D;52004;45.136;39.010;2022-09-23T06:05:36;15.51;68.08
65396;HTU21D;52004;45.136;39.010;2022-09-23T06:08:02;15.51;68.10
65396;HTU21D;52004;45.136;39.010;2022-09-23T06:10:28;0.00;68.10
65396;HTU21D;52004;45.136;39.010;2022-09-23T06:12:54;15.55;68.12
65396;HTU21D;52004;45.136;39.010;2022-09-23T06:15:20;15.58;68.12
65396;HTU21D;52004;45.136;39.010;2022-09-23T06:17:48;15.62;68.15
65396;HTU21D;52004;45.136;39.010;2022-09-23T06:20:14;15.68;68.16
65396;HTU21D;52004;45.136;39.010;2022-09-23T06:22:40;15.73;68.13
65396;HTU21D;52004;45.136;39.010;2022-09-23T06:25:06;15.78;68.13
65396;HTU21D;52004;45.136;39.010;2022-09-23T06:27:32;15.85;68.07
65396;HTU21D;52004;45.136;39.010;2022-09-23T06:29:58;15.87;68.06
65396;HTU21D;52004;45.136;39.010;2022-09-23T06:32:24;15.90;68.06
65396;HTU21D;52004;45.136;39.010;2022-09-23T06:34:50;15.95;68.06
65396;HTU21D;52004;45.136;39.010;2022-09-23T06:37:16;0.00;68.05
65396;HTU21D;52004;45.136;39.010;2022-09-23T06:39:42;16.01;68.05
65396;HTU21D;52004;45.136;39.010;2022-09-23T06:42:08;0.00;68.08
65396;HTU21D;52004;45.136;39.010;2022-09-23T06:44:34;16.10;68.10
65396;HTU21D;52004;45.136;39.010;2022-09-23T06:47:00;0.00;68.10
65396;HTU21D;52004;45.136;39.010;2022-09-23T06:49:26;0.00;68.10
65396;HTU21D;52004;45.136;39.010;2022-09-23T06:51:52;16.24;68.06
65396;HTU21D;52004;45.136;39.010;2022-09-23T06:54:18;16.26;67.97
65396;HTU21D;52004;45.136;39.010;2022-09-23T06:56:43;16.27;67.97
65396;HTU21D;52004;45.136;39.010;2022-09-23T06:59:12;0.00;67.90
65396;HTU21D;52004;45.136;39.010;2022-09-23T07:01:41;16.28;67.81
65396;HTU21D;52004;45.136;39.010;2022-09-23T07:04:10;16.25;67.78
65396;HTU21D;52004;45.136;39.010;2022-09-23T07:06:36;16.19;67.82
65396;HTU21D;52004;45.136;39.010;2022-09-23T07:09:02;16.13;67.88
65396;HTU21D;52004;45.136;39.010;2022-09-23T07:11:28;16.07;67.98
65396;HTU21D;52004;45.136;39.010;2022-09-23T07:13:54;16.04;68.01
65396;HTU21D;52004;45.136;39.010;2022-09-23T07:16:20;16.02;68.07
65396;HTU21D;52004;45.136;39.010;2022-09-23T07:19:11;16.02;68.03
65396;HTU21D;52004;45.136;39.010;2022-09-23T07:21:37;16.01;68.01
65396;HTU21D;52004;45.136;39.010;2022-09-23T07:24:03;0.00;68.04
65396;HTU21D;52004;45.136;39.010;2022-09-23T07:26:29;15.91;68.07
65396;HTU21D;52004;45.136;39.010;2022-09-23T07:28:59;15.88;68.13
65396;HTU21D;52004;45.136;39.010;2022-09-23T07:31:29;15.84;68.23
65396;HTU21D;52004;45.136;39.010;2022-09-23T07:33:56;15.83;68.24
65396;HTU21D;52004;45.136;39.010;2022-09-23T07:36:22;15.80;68.21
65396;HTU21D;52004;45.136;39.010;2022-09-23T07:38:48;15.75;68.32
65396;HTU21D;52004;45.136;39.010;2022-09-23T07:41:16;15.74;68.35
65396;HTU21D;52004;45.136;39.010;2022-09-23T07:43:42;0.00;68.31
65396;HTU21D;52004;45.136;39.010;2022-09-23T07:46:11;15.77;68.26
65396;HTU21D;52004;45.136;39.010;2022-09-23T07:48:40;15.81;68.24
65396;HTU21D;52004;45.136;39.010;2022-09-23T07:51:14;15.82;68.20
65396;HTU21D;52004;45.136;39.010;2022-09-23T07:53:41;15.83;68.17
65396;HTU21D;52004;45.136;39.010;2022-09-23T07:56:07;15.83;68.17
65396;HTU21D;52004;45.136;39.010;2022-09-23T07:58:33;15.81;68.15
65396;HTU21D;52004;45.136;39.010;2022-09-23T08:01:17;0.00;68.20
65396;HTU21D;52004;45.136;39.010;2022-09-23T08:03:44;15.82;68.33
65396;HTU21D;52004;45.136;39.010;2022-09-23T08:06:11;0.00;68.40
65396;HTU21D;52004;45.136;39.010;2022-09-23T08:08:38;15.85;68.42
65396;HTU21D;52004;45.136;39.010;2022-09-23T08:11:06;0.00;68.45
65396;HTU21D;52004;45.136;39.010;2022-09-23T08:13:32;15.97;68.46
65396;HTU21D;52004;45.136;39.010;2022-09-23T08:15:58;16.03;68.46
65396;HTU21D;52004;45.136;39.010;2022-09-23T08:18:24;16.12;68.41
65396;HTU21D;52004;45.136;39.010;2022-09-23T08:20:50;16.16;68.36
65396;HTU21D;52004;45.136;39.010;2022-09-23T08:23:16;16.21;68.35
65396;HTU21D;52004;45.136;39.010;2022-09-23T08:25:43;16.28;68.33
65396;HTU21D;52004;45.136;39.010;2022-09-23T08:28:11;16.34;68.31
65396;HTU21D;52004;45.136;39.010;2022-09-23T08:30:41;16.39;68.26
65396;HTU21D;52004;45.136;39.010;2022-09-23T08:33:08;16.45;68.17
65396;HTU21D;52004;45.136;39.010;2022-09-23T08:35:34;16.45;68.07
65396;HTU21D;52004;45.136;39.010;2022-09-23T08:38:25;16.47;68.17
65396;HTU21D;52004;45.136;39.010;2022-09-23T08:40:51;16.52;68.21
65396;HTU21D;52004;45.136;39.010;2022-09-23T08:45:43;0.00;68.12
65396;HTU21D;52004;45.136;39.010;2022-09-23T08:48:11;16.54;68.17
65396;HTU21D;52004;45.136;39.010;2022-09-23T08:50:42;16.61;68.22
65396;HTU21D;52004;45.136;39.010;2022-09-23T08:53:12;0.00;68.19
65396;HTU21D;52004;45.136;39.010;2022-09-23T08:55:44;16.80;68.19
65396;HTU21D;52004;45.136;39.010;2022-09-23T08:58:22;16.92;68.22
65396;HTU21D;52004;45.136;39.010;2022-09-23T09:00:58;17.04;68.21
65396;HTU21D;52004;45.136;39.010;2022-09-23T09:03:33;17.13;68.07
65396;HTU21D;52004;45.136;39.010;2022-09-23T09:05:59;17.19;67.93
65396;HTU21D;52004;45.136;39.010;2022-09-23T09:08:27;17.19;67.82
65396;HTU21D;52004;45.136;39.010;2022-09-23T09:10:55;17.15;67.75
65396;HTU21D;52004;45.136;39.010;2022-09-23T09:13:30;17.10;67.69
65396;HTU21D;52004;45.136;39.010;2022-09-23T09:18:31;16.98;67.81
65396;HTU21D;52004;45.136;39.010;2022-09-23T09:21:22;16.92;67.84
65396;HTU21D;52004;45.136;39.010;2022-09-23T09:23:53;16.89;67.88
65396;HTU21D;52004;45.136;39.010;2022-09-23T09:26:24;16.87;67.89
65396;HTU21D;52004;45.136;39.010;2022-09-23T09:28:51;16.98;68.14
65396;HTU21D;52004;45.136;39.010;2022-09-23T09:31:21;0.00;68.46
65396;HTU21D;52004;45.136;39.010;2022-09-23T09:38:47;17.81;68.35
65396;HTU21D;52004;45.136;39.010;2022-09-23T09:41:14;0.00;68.39
65396;HTU21D;52004;45.136;39.010;2022-09-23T09:43:43;18.21;68.26
65396;HTU21D;52004;45.136;39.010;2022-09-23T09:48:55;18.41;67.72
65396;HTU21D;52004;45.136;39.010;2022-09-23T09:51:23;18.43;67.65
65396;HTU21D;52004;45.136;39.010;2022-09-23T09:54:15;18.46;67.36
65396;HTU21D;52004;45.136;39.010;2022-09-23T09:56:41;18.41;67.21
65396;HTU21D;52004;45.136;39.010;2022-09-23T09:59:09;18.38;67.17
65396;HTU21D;52004;45.136;39.010;2022-09-23T10:01:36;18.36;67.20
65396;HTU21D;52004;45.136;39.010;2022-09-23T10:04:02;18.35;67.29
65396;HTU21D;52004;45.136;39.010;2022-09-23T10:06:30;18.35;67.31
65396;HTU21D;52004;45.136;39.010;2022-09-23T10:11:29;18.41;67.16
65396;HTU21D;52004;45.136;39.010;2022-09-23T10:16:25;0.00;66.96
65396;HTU21D;52004;45.136;39.010;2022-09-23T10:18:51;18.41;66.88
65396;HTU21D;52004;45.136;39.010;2022-09-23T10:21:22;18.38;66.77
65396;HTU21D;52004;45.136;39.010;2022-09-23T10:23:52;18.30;66.75
65396;HTU21D;52004;45.136;39.010;2022-09-23T10:26:29;18.27;66.75
65396;HTU21D;52004;45.136;39.010;2022-09-23T10:28:57;18.24;66.69
65396;HTU21D;52004;45.136;39.010;2022-09-23T10:31:27;18.22;66.65
65396;HTU21D;52004;45.136;39.010;2022-09-23T10:36:25;18.13;66.58
65396;HTU21D;52004;45.136;39.010;2022-09-23T10:38:56;18.04;66.62
65396;HTU21D;52004;45.136;39.010;2022-09-23T10:41:45;18.00;66.76
65396;HTU21D;52004;45.136;39.010;2022-09-23T10:47:19;17.97;66.56
65396;HTU21D;52004;45.136;39.010;2022-09-23T11:00:12;17.72;66.59
65396;HTU21D;52004;45.136;39.010;2022-09-23T11:08:16;17.73;66.51
65396;HTU21D;52004;45.136;39.010;2022-09-23T11:23:28;17.81;66.82
65396;HTU21D;52004;45.136;39.010;2022-09-23T11:31:11;18.37;66.88
65396;HTU21D;52004;45.136;39.010;2022-09-23T11:36:11;18.69;66.59
65396;HTU21D;52004;45.136;39.010;2022-09-23T11:38:42;18.79;66.33
65396;HTU21D;52004;45.136;39.010;2022-09-23T11:41:23;18.85;66.17
65396;HTU21D;52004;45.136;39.010;2022-09-23T11:43:52;18.88;65.98
65396;HTU21D;52004;45.136;39.010;2022-09-23T11:51:55;18.70;65.94
65396;HTU21D;52004;45.136;39.010;2022-09-23T11:54:21;18.81;66.26
65396;HTU21D;52004;45.136;39.010;2022-09-23T11:56:50;18.96;66.14
65396;HTU21D;52004;45.136;39.010;2022-09-23T11:59:40;19.11;66.08
65396;HTU21D;52004;45.136;39.010;2022-09-23T12:04:38;19.35;65.55
65396;HTU21D;52004;45.136;39.010;2022-09-23T12:07:18;19.39;65.60
65396;HTU21D;52004;45.136;39.010;2022-09-23T12:16:54;19.85;65.23
65396;HTU21D;52004;45.136;39.010;2022-09-23T12:24:53;19.63;64.54
65396;HTU21D;52004;45.136;39.010;2022-09-23T12:27:34;19.45;64.46
65396;HTU21D;52004;45.136;39.010;2022-09-23T12:30:03;19.41;64.88
65396;HTU21D;52004;45.136;39.010;2022-09-23T12:32:30;19.50;64.99
65396;HTU21D;52004;45.136;39.010;2022-09-23T12:34:56;19.60;64.96
65396;HTU21D;52004;45.136;39.010;2022-09-23T12:37:25;19.72;64.78
65396;HTU21D;52004;45.136;39.010;2022-09-23T12:39:52;19.77;64.41
65396;HTU21D;52004;45.136;39.010;2022-09-23T12:42:19;19.77;64.24
65396;HTU21D;52004;45.136;39.010;2022-09-23T12:44:47;19.77;64.15
65396;HTU21D;52004;45.136;39.010;2022-09-23T12:49:52;19.85;64.14
65396;HTU21D;52004;45.136;39.010;2022-09-23T12:54:47;19.86;63.82
65396;HTU21D;52004;45.136;39.010;2022-09-23T13:05:45;19.84;63.51
65396;HTU21D;52004;45.136;39.010;2022-09-23T13:08:31;19.84;63.50
65396;HTU21D;52004;45.136;39.010;2022-09-23T13:10:59;19.85;63.46
65396;HTU21D;52004;45.136;39.010;2022-09-23T13:13:40;19.85;63.42
65396;HTU21D;52004;45.136;39.010;2022-09-23T13:16:19;19.86;63.37
65396;HTU21D;52004;45.136;39.010;2022-09-23T13:18:53;19.87;63.27
65396;HTU21D;52004;45.136;39.010;2022-09-23T13:26:51;19.84;63.05
65396;HTU21D;52004;45.136;39.010;2022-09-23T13:31:49;19.85;62.91
65396;HTU21D;52004;45.136;39.010;2022-09-23T13:34:15;19.85;62.83
65396;HTU21D;52004;45.136;39.010;2022-09-23T13:36:43;0.00;62.67
65396;HTU21D;52004;45.136;39.010;2022-09-23T13:39:18;19.80;62.65
65396;HTU21D;52004;45.136;39.010;2022-09-23T13:41:47;19.73;62.57
65396;HTU21D;52004;45.136;39.010;2022-09-23T13:44:14;19.66;62.50
65396;HTU21D;52004;45.136;39.010;2022-09-23T13:46:44;19.56;62.49
65396;HTU21D;52004;45.136;39.010;2022-09-23T13:49:27;19.44;62.50
65396;HTU21D;52004;45.136;39.010;2022-09-23T13:51:54;19.33;62.53
65396;HTU21D;52004;45.136;39.010;2022-09-23T13:54:34;19.23;62.58
65396;HTU21D;52004;45.136;39.010;2022-09-23T13:57:23;19.13;62.64
65396;HTU21D;52004;45.136;39.010;2022-09-23T13:59:49;19.02;62.68
65396;HTU21D;52004;45.136;39.010;2022-09-23T14:02:16;18.93;62.71
65396;HTU21D;52004;45.136;39.010;2022-09-23T14:04:42;18.86;62.82
65396;HTU21D;52004;45.136;39.010;2022-09-23T14:07:08;18.83;62.90
65396;HTU21D;52004;45.136;39.010;2022-09-23T14:09:35;18.82;62.99
65396;HTU21D;52004;45.136;39.010;2022-09-23T14:12:03;18.81;63.14
65396;HTU21D;52004;45.136;39.010;2022-09-23T14:14:29;18.79;63.23
65396;HTU21D;52004;45.136;39.010;2022-09-23T14:16:55;18.78;63.27
65396;HTU21D;52004;45.136;39.010;2022-09-23T14:19:22;18.73;63.23
65396;HTU21D;52004;45.136;39.010;2022-09-23T14:21:54;18.70;63.15
65396;HTU21D;52004;45.136;39.010;2022-09-23T14:29:24;18.49;62.95
65396;HTU21D;52004;45.136;39.010;2022-09-23T14:31:54;18.42;62.94
65396;HTU21D;52004;45.136;39.010;2022-09-23T14:42:40;18.13;62.92
65396;HTU21D;52004;45.136;39.010;2022-09-23T14:45:08;18.07;62.91
65396;HTU21D;52004;45.136;39.010;2022-09-23T14:47:37;17.99;62.89
65396;HTU21D;52004;45.136;39.010;2022-09-23T14:50:12;17.92;62.91
65396;HTU21D;52004;45.136;39.010;2022-09-23T14:52:57;17.84;62.96
65396;HTU21D;52004;45.136;39.010;2022-09-23T14:55:25;17.77;62.98
65396;HTU21D;52004;45.136;39.010;2022-09-23T14:57:58;17.72;62.96
65396;HTU21D;52004;45.136;39.010;2022-09-23T15:00:24;0.00;62.96
65396;HTU21D;52004;45.136;39.010;2022-09-23T15:05:29;0.00;63.05
65396;HTU21D;52004;45.136;39.010;2022-09-23T15:07:56;17.41;63.06
65396;HTU21D;52004;45.136;39.010;2022-09-23T15:10:29;17.36;63.07
65396;HTU21D;52004;45.136;39.010;2022-09-23T15:13:22;17.30;63.09
65396;HTU21D;52004;45.136;39.010;2022-09-23T15:15:52;17.24;63.10
65396;HTU21D;52004;45.136;39.010;2022-09-23T15:20:51;17.13;63.11
65396;HTU21D;52004;45.136;39.010;2022-09-23T15:23:33;17.06;63.13
65396;HTU21D;52004;45.136;39.010;2022-09-23T15:28:51;16.91;63.22
65396;HTU21D;52004;45.136;39.010;2022-09-23T15:31:21;16.86;63.22
65396;HTU21D;52004;45.136;39.010;2022-09-23T15:33:48;16.78;63.26
65396;HTU21D;52004;45.136;39.010;2022-09-23T15:38:43;16.67;63.33
65396;HTU21D;52004;45.136;39.010;2022-09-23T15:41:09;16.61;63.37
65396;HTU21D;52004;45.136;39.010;2022-09-23T15:43:35;16.56;63.44
65396;HTU21D;52004;45.136;39.010;2022-09-23T15:46:05;16.49;63.47
65396;HTU21D;52004;45.136;39.010;2022-09-23T15:48:41;16.47;63.51
65396;HTU21D;52004;45.136;39.010;2022-09-23T15:51:08;16.41;63.51
65396;HTU21D;52004;45.136;39.010;2022-09-23T15:53:37;16.36;63.55
65396;HTU21D;52004;45.136;39.010;2022-09-23T15:56:03;16.31;63.56
65396;HTU21D;52004;45.136;39.010;2022-09-23T15:58:30;16.26;63.58
65396;HTU21D;52004;45.136;39.010;2022-09-23T16:00:56;16.20;63.59
65396;HTU21D;52004;45.136;39.010;2022-09-23T16:03:24;16.14;63.63
65396;HTU21D;52004;45.136;39.010;2022-09-23T16:05:53;16.07;63.70
65396;HTU21D;52004;45.136;39.010;2022-09-23T16:08:21;16.01;63.75
65396;HTU21D;52004;45.136;39.010;2022-09-23T16:10:49;15.98;63.78
65396;HTU21D;52004;45.136;39.010;2022-09-23T16:13:15;15.91;63.80
65396;HTU21D;52004;45.136;39.010;2022-09-23T16:15:41;15.89;63.84
65396;HTU21D;52004;45.136;39.010;2022-09-23T16:18:07;15.84;63.86
65396;HTU21D;52004;45.136;39.010;2022-09-23T16:20:59;15.81;63.91
65396;HTU21D;52004;45.136;39.010;2022-09-23T16:23:26;15.76;63.95
65396;HTU21D;52004;45.136;39.010;2022-09-23T16:26:06;15.72;63.98
65396;HTU21D;52004;45.136;39.010;2022-09-23T16:28:32;15.68;64.01
65396;HTU21D;52004;45.136;39.010;2022-09-23T16:30:58;15.65;64.03
65396;HTU21D;52004;45.136;39.010;2022-09-23T16:33:24;15.61;64.07
65396;HTU21D;52004;45.136;39.010;2022-09-23T16:35:52;15.59;64.08
65396;HTU21D;52004;45.136;39.010;2022-09-23T16:38:18;15.56;64.10
65396;HTU21D;52004;45.136;39.010;2022-09-23T16:40:44;15.49;64.14
65396;HTU21D;52004;45.136;39.010;2022-09-23T16:43:10;15.45;64.20
65396;HTU21D;52004;45.136;39.010;2022-09-23T16:45:35;15.42;64.22
65396;HTU21D;52004;45.136;39.010;2022-09-23T16:48:03;15.39;64.27
65396;HTU21D;52004;45.136;39.010;2022-09-23T16:50:29;15.38;64.27
65396;HTU21D;52004;45.136;39.010;2022-09-23T16:52:56;15.36;64.30
65396;HTU21D;52004;45.136;39.010;2022-09-23T16:55:23;15.31;64.32
65396;HTU21D;52004;45.136;39.010;2022-09-23T16:57:51;15.29;64.35
65396;HTU21D;52004;45.136;39.010;2022-09-23T17:00:18;15.25;64.38
65396;HTU21D;52004;45.136;39.010;2022-09-23T17:03:03;15.24;64.40
65396;HTU21D;52004;45.136;39.010;2022-09-23T17:05:48;15.19;64.42
65396;HTU21D;52004;45.136;39.010;2022-09-23T17:08:15;15.15;64.48
65396;HTU21D;52004;45.136;39.010;2022-09-23T17:10:42;15.11;64.51
65396;HTU21D;52004;45.136;39.010;2022-09-23T17:13:08;15.07;64.56
65396;HTU21D;52004;45.136;39.010;2022-09-23T17:15:38;15.01;64.59
65396;HTU21D;52004;45.136;39.010;2022-09-23T17:18:05;14.95;64.66
65396;HTU21D;52004;45.136;39.010;2022-09-23T17:20:31;14.88;64.71
65396;HTU21D;52004;45.136;39.010;2022-09-23T17:22:57;14.85;64.75
65396;HTU21D;52004;45.136;39.010;2022-09-23T17:25:23;14.81;64.78
65396;HTU21D;52004;45.136;39.010;2022-09-23T17:27:49;14.77;64.80
65396;HTU21D;52004;45.136;39.010;2022-09-23T17:30:15;14.72;64.84
65396;HTU21D;52004;45.136;39.010;2022-09-23T17:32:41;14.66;64.89
65396;HTU21D;52004;45.136;39.010;2022-09-23T17:35:08;14.59;64.95
65396;HTU21D;52004;45.136;39.010;2022-09-23T17:37:34;14.52;65.07
65396;HTU21D;52004;45.136;39.010;2022-09-23T17:40:00;14.48;65.14
65396;HTU21D;52004;45.136;39.010;2022-09-23T17:42:26;14.43;65.22
65396;HTU21D;52004;45.136;39.010;2022-09-23T17:44:52;0.00;65.30
65396;HTU21D;52004;45.136;39.010;2022-09-23T17:47:21;14.37;65.33
65396;HTU21D;52004;45.136;39.010;2022-09-23T17:49:47;0.00;65.34
65396;HTU21D;52004;45.136;39.010;2022-09-23T17:52:15;14.33;65.37
65396;HTU21D;52004;45.136;39.010;2022-09-23T17:54:40;0.00;65.39
65396;HTU21D;52004;45.136;39.010;2022-09-23T17:57:31;14.27;65.42
65396;HTU21D;52004;45.136;39.010;2022-09-23T17:59:57;14.26;65.46
65396;HTU21D;52004;45.136;39.010;2022-09-23T18:02:23;14.26;65.50
65396;HTU21D;52004;45.136;39.010;2022-09-23T18:04:49;14.26;65.50
65396;HTU21D;52004;45.136;39.010;2022-09-23T18:07:15;14.28;65.50